Weather at Nanga Merakai Airstrip

Public forecast

Using degrees Celsius for public forecast. Weather courtesy of forecast.io.

Closest aviation weather report (METAR) to Nanga Merakai Airstrip

Closest report is Simanggang Airport, 31.4 nm (58.1 km) N.

(retrieved 0 seconds ago)

Closest aviation forecast (TAF) to Nanga Merakai Airstrip

Closest forecast is Kuching International Airport, 84.6 nm (156.6 km) NW.

2024/05/27 18:09 (retrieved 5 hours ago)

TAF WBGG 271700Z 2718/2818 26005KT 9999 FEW020 TEMPO 2722/2801 6000 -RA FEW003 TEMPO 2807/2810 5000 TSRA FEW015CB